Time,TemperatureF,DewpointF,PressureIn,WindDirection,WindDirectionDegrees,WindSpeedMPH,WindSpeedGustMPH,Humidity,HourlyPrecipIn,Conditions,Clouds,dailyrainin,SoftwareType,DateUTC
2013-01-03 00:15:00,38.3,29.0,30.18,NE,36,0.0,3.0,69,0.00,OVC,,0.00,WeatherDisplay:10.37,2013-01-03 05:15:00,
2013-01-03 00:30:00,38.2,28.9,30.18,NE,43,0.0,4.0,69,0.00,OVC,,0.00,WeatherDisplay:10.37,2013-01-03 05:30:00,
2013-01-03 00:45:00,38.1,28.8,30.17,NE,48,0.0,3.0,69,0.00,OVC,,0.00,WeatherDisplay:10.37,2013-01-03 05:45:00,
2013-01-03 01:00:00,38.1,28.8,30.16,NNE,33,0.0,4.0,69,0.00,OVC,,0.00,WeatherDisplay:10.37,2013-01-03 06:00:00,
2013-01-03 01:15:00,38.0,28.4,30.17,NNE,29,0.0,4.0,68,0.00,OVC,,0.00,WeatherDisplay:10.37,2013-01-03 06:15:00,
2013-01-03 01:30:00,38.1,28.5,30.17,NNE,25,0.0,4.0,68,0.00,OVC,,0.00,WeatherDisplay:10.37,2013-01-03 06:30:00,
2013-01-03 01:45:00,38.0,28.4,30.18,NNE,28,0.0,3.0,68,0.00,OVC,,0.00,WeatherDisplay:10.37,2013-01-03 06:45:00,
2013-01-03 02:00:00,38.0,28.0,30.18,NNE,17,0.0,5.0,67,0.00,OVC,,0.00,WeatherDisplay:10.37,2013-01-03 07:00:00,
2013-01-03 02:15:00,38.2,27.8,30.18,NNE,13,0.0,5.0,66,0.00,OVC,,0.00,WeatherDisplay:10.37,2013-01-03 07:15:00,
2013-01-03 02:30:00,38.1,27.7,30.18,NNE,16,1.0,5.0,66,0.00,OVC,,0.00,WeatherDisplay:10.37,2013-01-03 07:30:00,
2013-01-03 02:45:00,38.1,27.4,30.18,NNE,12,1.0,4.0,65,0.00,OVC,,0.00,WeatherDisplay:10.37,2013-01-03 07:45:00,
2013-01-03 03:00:00,38.0,27.6,30.18,NNE,13,0.0,3.0,66,0.00,OVC,,0.00,WeatherDisplay:10.37,2013-01-03 08:00:00,
2013-01-03 03:15:00,37.8,27.5,30.17,East,81,0.0,4.0,66,0.00,OVC,,0.00,WeatherDisplay:10.37,2013-01-03 08:15:00,
2013-01-03 03:30:00,37.7,27.4,30.17,ENE,70,0.0,4.0,66,0.00,OVC,,0.00,WeatherDisplay:10.37,2013-01-03 08:30:00,
2013-01-03 03:45:00,37.7,27.7,30.18,NE,46,0.0,3.0,67,0.00,OVC,,0.00,WeatherDisplay:10.37,2013-01-03 08:45:00,
2013-01-03 04:00:00,37.5,27.5,30.18,NE,46,0.0,2.0,67,0.00,OVC,,0.00,WeatherDisplay:10.37,2013-01-03 09:00:00,
2013-01-03 04:15:00,37.5,27.9,30.18,NE,46,0.0,1.0,68,0.00,OVC,,0.00,WeatherDisplay:10.37,2013-01-03 09:15:00,
2013-01-03 04:30:00,37.4,27.8,30.17,NE,46,0.0,3.0,68,0.00,OVC,,0.00,WeatherDisplay:10.37,2013-01-03 09:30:00,
2013-01-03 04:45:00,37.4,27.8,30.17,NE,46,0.0,3.0,68,0.00,OVC,,0.00,WeatherDisplay:10.37,2013-01-03 09:45:00,
2013-01-03 05:00:00,37.4,27.4,30.17,NNE,14,0.0,4.0,67,0.00,OVC,,0.00,WeatherDisplay:10.37,2013-01-03 10:00:00,
2013-01-03 05:15:00,37.4,27.1,30.17,East,83,2.0,4.0,66,0.00,OVC,,0.00,WeatherDisplay:10.37,2013-01-03 10:15:00,
2013-01-03 05:30:00,37.4,27.1,30.17,East,96,0.0,5.0,66,0.00,OVC,,0.00,WeatherDisplay:10.37,2013-01-03 10:30:00,
2013-01-03 05:45:00,37.3,27.0,30.17,ENE,57,0.0,4.0,66,0.00,OVC,,0.00,WeatherDisplay:10.37,2013-01-03 10:45:00,
2013-01-03 06:00:00,37.3,27.3,30.17,NE,51,0.0,3.0,67,0.00,OVC,,0.00,WeatherDisplay:10.37,2013-01-03 11:00:00,
2013-01-03 06:15:00,37.3,27.7,30.18,NE,48,0.0,3.0,68,0.00,OVC,,0.00,WeatherDisplay:10.37,2013-01-03 11:15:00,
2013-01-03 06:30:00,37.2,27.2,30.19,NNE,29,0.0,4.0,67,0.00,OVC,,0.00,WeatherDisplay:10.37,2013-01-03 11:30:00,
2013-01-03 06:45:00,37.1,27.2,30.19,NNE,29,0.0,1.0,67,0.00,OVC,,0.00,WeatherDisplay:10.37,2013-01-03 11:45:00,
2013-01-03 07:00:00,37.1,27.2,30.20,NNE,29,0.0,3.0,67,0.00,OVC,,0.00,WeatherDisplay:10.37,2013-01-03 12:00:00,
2013-01-03 07:15:00,37.1,27.5,30.20,NNE,29,0.0,4.0,68,0.00,OVC,,0.00,WeatherDisplay:10.37,2013-01-03 12:15:00,
2013-01-03 07:30:00,37.1,26.8,30.20,NNE,26,0.0,3.0,66,0.00,OVC,,0.00,WeatherDisplay:10.37,2013-01-03 12:30:00,
2013-01-03 07:45:00,37.1,27.2,30.20,NNE,25,1.0,3.0,67,0.00,OVC,,0.00,WeatherDisplay:10.37,2013-01-03 12:45:00,
2013-01-03 08:00:00,37.1,27.2,30.21,NNE,25,0.0,3.0,67,0.00,OVC,,0.00,WeatherDisplay:10.37,2013-01-03 13:00:00,
2013-01-03 08:15:00,37.1,26.8,30.21,North,7,0.0,4.0,66,0.00,OVC,,0.00,WeatherDisplay:10.37,2013-01-03 13:15:00,
2013-01-03 08:30:00,37.2,27.2,30.22,North,3,2.0,5.0,67,0.00,OVC,,0.00,WeatherDisplay:10.37,2013-01-03 13:30:00,
2013-01-03 08:45:00,37.3,27.0,30.21,NNE,14,0.0,4.0,66,0.00,OVC,,0.00,WeatherDisplay:10.37,2013-01-03 13:45:00,
2013-01-03 09:00:00,37.3,27.0,30.22,NNE,14,0.0,3.0,66,0.00,OVC,,0.00,WeatherDisplay:10.37,2013-01-03 14:00:00,
2013-01-03 09:15:00,37.6,27.3,30.22,NNE,23,1.0,6.0,66,0.00,OVC,,0.00,WeatherDisplay:10.37,2013-01-03 14:15:00,
2013-01-03 09:30:00,37.8,26.7,30.22,NE,53,1.0,6.0,64,0.00,OVC,,0.00,WeatherDisplay:10.37,2013-01-03 14:30:00,
2013-01-03 09:45:00,38.0,26.9,30.23,NE,36,1.0,5.0,64,0.00,OVC,,0.00,WeatherDisplay:10.37,2013-01-03 14:45:00,
2013-01-03 10:00:00,38.3,27.2,30.24,NE,39,1.0,5.0,64,0.00,OVC,,0.00,WeatherDisplay:10.37,2013-01-03 15:00:00,
2013-01-03 10:15:00,38.5,27.0,30.24,NE,35,0.0,5.0,63,0.00,OVC,,0.00,WeatherDisplay:10.37,2013-01-03 15:15:00,
2013-01-03 10:30:00,38.7,27.2,30.25,North,360,0.0,6.0,63,0.00,OVC,,0.00,WeatherDisplay:10.37,2013-01-03 15:30:00,
2013-01-03 10:45:00,39.1,27.9,30.24,ENE,57,1.0,5.0,64,0.00,OVC,,0.00,WeatherDisplay:10.37,2013-01-03 15:45:00,
2013-01-03 11:00:00,39.4,28.6,30.23,North,5,1.0,6.0,65,0.00,OVC,,0.00,WeatherDisplay:10.37,2013-01-03 16:00:00,
2013-01-03 11:15:00,39.8,29.4,30.23,NW,312,1.0,4.0,66,0.00,OVC,,0.00,WeatherDisplay:10.37,2013-01-03 16:15:00,
2013-01-03 11:30:00,40.1,28.9,30.22,NNE,29,1.0,6.0,64,0.00,OVC,,0.00,WeatherDisplay:10.37,2013-01-03 16:30:00,
2013-01-03 11:45:00,40.0,28.8,30.21,North,357,1.0,4.0,64,0.00,OVC,,0.00,WeatherDisplay:10.37,2013-01-03 16:45:00,
2013-01-03 12:00:00,40.3,28.3,30.20,NNW,335,0.0,4.0,62,0.00,OVC,,0.00,WeatherDisplay:10.37,2013-01-03 17:00:00,
2013-01-03 12:15:00,40.5,28.5,30.20,North,11,1.0,5.0,62,0.00,OVC,,0.00,WeatherDisplay:10.37,2013-01-03 17:15:00,
2013-01-03 12:30:00,40.7,29.1,30.19,East,86,0.0,3.0,63,0.00,OVC,,0.00,WeatherDisplay:10.37,2013-01-03 17:30:00,
2013-01-03 12:45:00,41.1,29.5,30.18,North,351,2.0,4.0,63,0.00,OVC,,0.00,WeatherDisplay:10.37,2013-01-03 17:45:00,
2013-01-03 13:00:00,40.7,29.1,30.18,NNW,330,2.0,7.0,63,0.00,OVC,,0.00,WeatherDisplay:10.37,2013-01-03 18:00:00,
2013-01-03 13:15:00,40.9,28.9,30.19,NNW,347,2.0,4.0,62,0.00,OVC,,0.00,WeatherDisplay:10.37,2013-01-03 18:15:00,
2013-01-03 13:30:00,40.9,28.9,30.18,NW,314,0.0,5.0,62,0.00,OVC,,0.00,WeatherDisplay:10.37,2013-01-03 18:30:00,
2013-01-03 13:45:00,40.9,29.3,30.18,NW,314,1.0,3.0,63,0.00,OVC,,0.00,WeatherDisplay:10.37,2013-01-03 18:45:00,
2013-01-03 14:00:00,41.0,28.6,30.18,NW,314,1.0,4.0,61,0.00,OVC,,0.00,WeatherDisplay:10.37,2013-01-03 19:00:00,
2013-01-03 14:15:00,40.9,27.7,30.18,NNW,346,1.0,5.0,59,0.00,OVC,,0.00,WeatherDisplay:10.37,2013-01-03 19:15:00,
2013-01-03 15:00:00,41.1,27.4,30.19,NNW,342,2.0,6.0,58,0.00,OVC,,0.00,WeatherDisplay:10.37,2013-01-03 20:00:00,
2013-01-03 15:15:00,41.0,27.8,30.20,North,357,0.0,3.0,59,0.00,OVC,,0.00,WeatherDisplay:10.37,2013-01-03 20:15:00,
2013-01-03 15:30:00,40.9,27.7,30.20,North,358,0.0,5.0,59,0.00,OVC,,0.00,WeatherDisplay:10.37,2013-01-03 20:30:00,
2013-01-03 15:45:00,40.8,27.6,30.20,North,358,0.0,2.0,59,0.00,OVC,,0.00,WeatherDisplay:10.37,2013-01-03 20:45:00,
2013-01-03 16:00:00,40.9,27.7,30.20,North,358,0.0,3.0,59,0.00,OVC,,0.00,WeatherDisplay:10.37,2013-01-03 21:00:00,
2013-01-03 16:15:00,40.8,27.6,30.21,North,0,0.0,2.0,59,0.00,OVC,,0.00,WeatherDisplay:10.37,2013-01-03 21:15:00,
2013-01-03 16:30:00,40.7,27.5,30.21,North,0,0.0,0.0,59,0.00,SCT,,0.00,WeatherDisplay:10.37,2013-01-03 21:30:00,
2013-01-03 16:45:00,40.6,28.2,30.22,North,0,0.0,0.0,61,0.00,SCT,,0.00,WeatherDisplay:10.37,2013-01-03 21:45:00,
2013-01-03 17:00:00,39.9,28.7,30.22,North,0,0.0,0.0,64,0.00,SCT,,0.00,WeatherDisplay:10.37,2013-01-03 22:00:00,
2013-01-03 17:15:00,39.0,27.9,30.22,North,0,0.0,0.0,64,0.00,SCT,,0.00,WeatherDisplay:10.37,2013-01-03 22:15:00,
2013-01-03 17:30:00,38.2,28.2,30.23,North,0,0.0,0.0,67,0.00,CLR,,0.00,WeatherDisplay:10.37,2013-01-03 22:30:00,
2013-01-03 17:45:00,36.8,27.6,30.23,North,0,0.0,0.0,69,0.00,CLR,,0.00,WeatherDisplay:10.37,2013-01-03 22:45:00,
2013-01-03 18:00:00,35.7,27.2,30.23,North,0,0.0,0.0,71,0.00,CLR,,0.00,WeatherDisplay:10.37,2013-01-03 23:00:00,
2013-01-03 18:15:00,34.8,27.0,30.24,North,0,0.0,0.0,73,0.00,CLR,,0.00,WeatherDisplay:10.37,2013-01-03 23:15:00,
2013-01-03 18:30:00,34.0,26.5,30.24,North,0,0.0,0.0,74,0.00,CLR,,0.00,WeatherDisplay:10.37,2013-01-03 23:30:00,
2013-01-03 18:45:00,32.9,26.2,30.25,North,0,0.0,0.0,76,0.00,CLR,,0.00,WeatherDisplay:10.37,2013-01-03 23:45:00,
2013-01-03 19:00:00,32.0,25.7,30.25,North,0,0.0,0.0,77,0.00,CLR,,0.00,WeatherDisplay:10.37,2013-01-04 00:00:00,
2013-01-03 19:15:00,31.3,25.3,30.26,North,0,0.0,0.0,78,0.00,CLR,,0.00,WeatherDisplay:10.37,2013-01-04 00:15:00,
2013-01-03 19:30:00,30.7,25.0,30.26,North,0,0.0,0.0,79,0.00,CLR,,0.00,WeatherDisplay:10.37,2013-01-04 00:30:00,
2013-01-03 19:45:00,30.0,24.6,30.27,North,0,0.0,0.0,80,0.00,CLR,,0.00,WeatherDisplay:10.37,2013-01-04 00:45:00,
2013-01-03 20:00:00,29.4,24.2,30.26,North,0,0.0,0.0,81,0.00,CLR,,0.00,WeatherDisplay:10.37,2013-01-04 01:00:00,
2013-01-03 20:15:00,28.7,23.9,30.27,North,0,0.0,0.0,82,0.00,CLR,,0.00,WeatherDisplay:10.37,2013-01-04 01:15:00,
2013-01-03 20:30:00,28.2,23.4,30.27,North,0,0.0,0.0,82,0.00,CLR,,0.00,WeatherDisplay:10.37,2013-01-04 01:30:00,
2013-01-03 20:45:00,27.6,22.8,30.27,North,0,0.0,0.0,82,0.00,CLR,,0.00,WeatherDisplay:10.37,2013-01-04 01:45:00,
2013-01-03 21:00:00,27.3,22.8,30.27,North,0,0.0,0.0,83,0.00,CLR,,0.00,WeatherDisplay:10.37,2013-01-04 02:00:00,
2013-01-03 21:15:00,27.0,22.8,30.27,North,0,0.0,0.0,84,0.00,CLR,,0.00,WeatherDisplay:10.37,2013-01-04 02:15:00,
2013-01-03 21:30:00,26.8,22.6,30.27,North,0,0.0,0.0,84,0.00,CLR,,0.00,WeatherDisplay:10.37,2013-01-04 02:30:00,
2013-01-03 21:45:00,26.6,22.4,30.28,North,0,0.0,0.0,84,0.00,CLR,,0.00,WeatherDisplay:10.37,2013-01-04 02:45:00,
2013-01-03 22:00:00,26.3,22.1,30.28,North,0,0.0,0.0,84,0.00,CLR,,0.00,WeatherDisplay:10.37,2013-01-04 03:00:00,
2013-01-03 22:15:00,26.0,21.8,30.28,North,0,0.0,0.0,84,0.00,CLR,,0.00,WeatherDisplay:10.37,2013-01-04 03:15:00,
2013-01-03 22:30:00,25.7,21.5,30.29,North,0,0.0,0.0,84,0.00,CLR,,0.00,WeatherDisplay:10.37,2013-01-04 03:30:00,
2013-01-03 22:45:00,25.6,21.7,30.29,North,0,0.0,0.0,85,0.00,CLR,,0.00,WeatherDisplay:10.37,2013-01-04 03:45:00,
2013-01-03 23:00:00,25.4,21.5,30.29,North,0,0.0,0.0,85,0.00,CLR,,0.00,WeatherDisplay:10.37,2013-01-04 04:00:00,
2013-01-03 23:15:00,25.1,21.2,30.29,North,0,0.0,0.0,85,0.00,CLR,,0.00,WeatherDisplay:10.37,2013-01-04 04:15:00,
2013-01-03 23:30:00,24.9,21.3,30.29,North,0,0.0,0.0,86,0.00,CLR,,0.00,WeatherDisplay:10.37,2013-01-04 04:30:00,
2013-01-03 23:45:00,24.6,21.0,30.29,North,0,0.0,0.0,86,0.00,CLR,,0.00,WeatherDisplay:10.37,2013-01-04 04:45:00,